sensor_id;sensor_type;location;lat;lon;timestamp;P1;durP1;ratioP1;P2;durP2;ratioP2
71763;SDS011;59602;52.142;5.408;2022-11-28T00:02:06;10.57;;;3.00;;
71763;SDS011;59602;52.142;5.408;2022-11-28T00:04:32;6.93;;;3.22;;
71763;SDS011;59602;52.142;5.408;2022-11-28T00:06:59;6.03;;;2.70;;
71763;SDS011;59602;52.142;5.408;2022-11-28T00:09:26;6.22;;;2.97;;
71763;SDS011;59602;52.142;5.408;2022-11-28T00:11:52;6.18;;;3.00;;
71763;SDS011;59602;52.142;5.408;2022-11-28T00:14:19;6.43;;;3.30;;
71763;SDS011;59602;52.142;5.408;2022-11-28T00:16:45;7.72;;;3.13;;
71763;SDS011;59602;52.142;5.408;2022-11-28T00:19:13;9.67;;;3.20;;
71763;SDS011;59602;52.142;5.408;2022-11-28T00:21:40;6.32;;;2.63;;
71763;SDS011;59602;52.142;5.408;2022-11-28T00:24:07;7.15;;;2.90;;
71763;SDS011;59602;52.142;5.408;2022-11-28T00:26:35;6.10;;;2.88;;
71763;SDS011;59602;52.142;5.408;2022-11-28T00:29:05;6.40;;;3.03;;
71763;SDS011;59602;52.142;5.408;2022-11-28T00:31:34;7.30;;;2.90;;
71763;SDS011;59602;52.142;5.408;2022-11-28T00:34:08;5.85;;;3.20;;
71763;SDS011;59602;52.142;5.408;2022-11-28T00:36:36;6.47;;;3.00;;
71763;SDS011;59602;52.142;5.408;2022-11-28T00:39:03;5.57;;;2.80;;
71763;SDS011;59602;52.142;5.408;2022-11-28T00:41:30;7.40;;;2.90;;
71763;SDS011;59602;52.142;5.408;2022-11-28T00:44:00;6.33;;;2.50;;
71763;SDS011;59602;52.142;5.408;2022-11-28T00:46:26;4.90;;;2.63;;
71763;SDS011;59602;52.142;5.408;2022-11-28T00:48:53;6.60;;;2.97;;
71763;SDS011;59602;52.142;5.408;2022-11-28T00:51:21;6.57;;;3.47;;
71763;SDS011;59602;52.142;5.408;2022-11-28T00:53:50;5.15;;;2.90;;
71763;SDS011;59602;52.142;5.408;2022-11-28T00:56:19;6.80;;;2.73;;
71763;SDS011;59602;52.142;5.408;2022-11-28T00:58:47;6.70;;;3.20;;
71763;SDS011;59602;52.142;5.408;2022-11-28T01:03:54;6.05;;;3.00;;
71763;SDS011;59602;52.142;5.408;2022-11-28T01:06:23;6.00;;;3.10;;
71763;SDS011;59602;52.142;5.408;2022-11-28T01:08:53;7.13;;;3.00;;
71763;SDS011;59602;52.142;5.408;2022-11-28T01:11:20;5.35;;;2.83;;
71763;SDS011;59602;52.142;5.408;2022-11-28T01:13:47;6.57;;;3.20;;
71763;SDS011;59602;52.142;5.408;2022-11-28T01:16:15;10.55;;;3.72;;
71763;SDS011;59602;52.142;5.408;2022-11-28T01:18:42;7.00;;;3.17;;
71763;SDS011;59602;52.142;5.408;2022-11-28T01:21:08;7.40;;;3.30;;
71763;SDS011;59602;52.142;5.408;2022-11-28T01:23:36;6.57;;;3.20;;
71763;SDS011;59602;52.142;5.408;2022-11-28T01:26:03;6.68;;;3.00;;
71763;SDS011;59602;52.142;5.408;2022-11-28T01:28:32;6.00;;;3.08;;
71763;SDS011;59602;52.142;5.408;2022-11-28T01:31:03;7.78;;;3.40;;
71763;SDS011;59602;52.142;5.408;2022-11-28T01:33:31;7.13;;;2.83;;
71763;SDS011;59602;52.142;5.408;2022-11-28T01:35:58;5.40;;;2.53;;
71763;SDS011;59602;52.142;5.408;2022-11-28T01:38:25;7.28;;;2.92;;
71763;SDS011;59602;52.142;5.408;2022-11-28T01:40:53;4.95;;;2.70;;
71763;SDS011;59602;52.142;5.408;2022-11-28T01:43:21;5.88;;;2.55;;
71763;SDS011;59602;52.142;5.408;2022-11-28T01:45:48;5.57;;;3.20;;
71763;SDS011;59602;52.142;5.408;2022-11-28T01:48:21;7.53;;;2.58;;
71763;SDS011;59602;52.142;5.408;2022-11-28T01:50:51;4.82;;;2.28;;
71763;SDS011;59602;52.142;5.408;2022-11-28T01:53:23;6.63;;;2.30;;
71763;SDS011;59602;52.142;5.408;2022-11-28T01:55:57;5.70;;;2.55;;
71763;SDS011;59602;52.142;5.408;2022-11-28T01:58:27;5.90;;;2.70;;
71763;SDS011;59602;52.142;5.408;2022-11-28T02:00:55;5.07;;;2.40;;
71763;SDS011;59602;52.142;5.408;2022-11-28T02:03:25;4.75;;;1.83;;
71763;SDS011;59602;52.142;5.408;2022-11-28T02:05:55;4.30;;;2.20;;
71763;SDS011;59602;52.142;5.408;2022-11-28T02:08:22;4.68;;;2.30;;
71763;SDS011;59602;52.142;5.408;2022-11-28T02:10:56;4.50;;;2.07;;
71763;SDS011;59602;52.142;5.408;2022-11-28T02:13:39;3.47;;;2.03;;
71763;SDS011;59602;52.142;5.408;2022-11-28T02:22:23;5.28;;;2.40;;
71763;SDS011;59602;52.142;5.408;2022-11-28T02:27:49;4.50;;;2.28;;
71763;SDS011;59602;52.142;5.408;2022-11-28T02:30:29;4.50;;;2.22;;
71763;SDS011;59602;52.142;5.408;2022-11-28T02:33:16;4.72;;;2.58;;
71763;SDS011;59602;52.142;5.408;2022-11-28T02:38:34;8.10;;;2.47;;
71763;SDS011;59602;52.142;5.408;2022-11-28T02:43:51;3.88;;;2.22;;
71763;SDS011;59602;52.142;5.408;2022-11-28T02:49:11;5.18;;;2.25;;
71763;SDS011;59602;52.142;5.408;2022-11-28T02:52:00;5.17;;;2.70;;
71763;SDS011;59602;52.142;5.408;2022-11-28T02:54:32;4.90;;;2.40;;
71763;SDS011;59602;52.142;5.408;2022-11-28T02:56:59;5.25;;;2.20;;
71763;SDS011;59602;52.142;5.408;2022-11-28T02:59:30;4.55;;;2.40;;
71763;SDS011;59602;52.142;5.408;2022-11-28T03:01:57;5.00;;;2.60;;
71763;SDS011;59602;52.142;5.408;2022-11-28T03:04:30;4.47;;;2.60;;
71763;SDS011;59602;52.142;5.408;2022-11-28T03:07:17;3.70;;;2.03;;
71763;SDS011;59602;52.142;5.408;2022-11-28T03:10:03;4.57;;;2.22;;
71763;SDS011;59602;52.142;5.408;2022-11-28T03:15:18;5.18;;;2.13;;
71763;SDS011;59602;52.142;5.408;2022-11-28T03:25:48;6.13;;;2.58;;
71763;SDS011;59602;52.142;5.408;2022-11-28T03:31:10;4.77;;;2.60;;
71763;SDS011;59602;52.142;5.408;2022-11-28T03:33:41;5.05;;;2.28;;
71763;SDS011;59602;52.142;5.408;2022-11-28T03:36:14;4.95;;;2.35;;
71763;SDS011;59602;52.142;5.408;2022-11-28T03:38:47;5.63;;;2.60;;
71763;SDS011;59602;52.142;5.408;2022-11-28T03:41:17;4.30;;;2.42;;
71763;SDS011;59602;52.142;5.408;2022-11-28T03:43:51;5.57;;;3.37;;
71763;SDS011;59602;52.142;5.408;2022-11-28T03:46:20;6.32;;;2.53;;
71763;SDS011;59602;52.142;5.408;2022-11-28T03:48:51;6.50;;;2.72;;
71763;SDS011;59602;52.142;5.408;2022-11-28T03:51:24;4.28;;;2.53;;
71763;SDS011;59602;52.142;5.408;2022-11-28T03:54:00;5.88;;;2.65;;
71763;SDS011;59602;52.142;5.408;2022-11-28T03:56:39;5.00;;;2.30;;
71763;SDS011;59602;52.142;5.408;2022-11-28T03:59:20;5.05;;;2.45;;
71763;SDS011;59602;52.142;5.408;2022-11-28T04:02:01;5.07;;;2.13;;
71763;SDS011;59602;52.142;5.408;2022-11-28T04:15:08;6.57;;;3.05;;
71763;SDS011;59602;52.142;5.408;2022-11-28T04:17:49;5.85;;;3.10;;
71763;SDS011;59602;52.142;5.408;2022-11-28T04:20:20;7.20;;;3.15;;
71763;SDS011;59602;52.142;5.408;2022-11-28T04:22:53;7.13;;;2.87;;
71763;SDS011;59602;52.142;5.408;2022-11-28T04:25:24;6.10;;;3.25;;
71763;SDS011;59602;52.142;5.408;2022-11-28T04:27:55;5.07;;;2.83;;
71763;SDS011;59602;52.142;5.408;2022-11-28T04:30:25;5.43;;;2.72;;
71763;SDS011;59602;52.142;5.408;2022-11-28T04:32:54;7.55;;;3.40;;
71763;SDS011;59602;52.142;5.408;2022-11-28T04:35:27;6.63;;;2.77;;
71763;SDS011;59602;52.142;5.408;2022-11-28T04:37:59;6.60;;;3.03;;
71763;SDS011;59602;52.142;5.408;2022-11-28T04:40:29;9.48;;;3.30;;
71763;SDS011;59602;52.142;5.408;2022-11-28T04:43:00;6.35;;;3.05;;
71763;SDS011;59602;52.142;5.408;2022-11-28T04:45:30;5.82;;;2.95;;
71763;SDS011;59602;52.142;5.408;2022-11-28T04:48:00;7.50;;;3.10;;
71763;SDS011;59602;52.142;5.408;2022-11-28T04:50:30;9.27;;;3.17;;
71763;SDS011;59602;52.142;5.408;2022-11-28T04:53:09;4.90;;;2.67;;
71763;SDS011;59602;52.142;5.408;2022-11-28T04:55:45;9.02;;;3.30;;
71763;SDS011;59602;52.142;5.408;2022-11-28T05:00:48;5.03;;;2.60;;
71763;SDS011;59602;52.142;5.408;2022-11-28T05:03:18;9.25;;;2.95;;
71763;SDS011;59602;52.142;5.408;2022-11-28T05:05:46;6.82;;;3.40;;
71763;SDS011;59602;52.142;5.408;2022-11-28T05:08:15;6.45;;;3.00;;
71763;SDS011;59602;52.142;5.408;2022-11-28T05:10:43;5.55;;;3.00;;
71763;SDS011;59602;52.142;5.408;2022-11-28T05:13:10;5.93;;;3.27;;
71763;SDS011;59602;52.142;5.408;2022-11-28T05:15:37;6.72;;;3.25;;
71763;SDS011;59602;52.142;5.408;2022-11-28T05:18:04;6.45;;;3.33;;
71763;SDS011;59602;52.142;5.408;2022-11-28T05:20:31;5.97;;;3.05;;
71763;SDS011;59602;52.142;5.408;2022-11-28T05:22:57;5.60;;;3.45;;
71763;SDS011;59602;52.142;5.408;2022-11-28T05:25:24;6.17;;;3.30;;
71763;SDS011;59602;52.142;5.408;2022-11-28T05:27:51;6.13;;;3.17;;
71763;SDS011;59602;52.142;5.408;2022-11-28T05:30:18;6.20;;;2.97;;
71763;SDS011;59602;52.142;5.408;2022-11-28T05:32:45;5.95;;;3.38;;
71763;SDS011;59602;52.142;5.408;2022-11-28T05:35:12;6.28;;;3.50;;
71763;SDS011;59602;52.142;5.408;2022-11-28T05:37:39;6.63;;;3.07;;
71763;SDS011;59602;52.142;5.408;2022-11-28T05:40:06;5.35;;;3.08;;
71763;SDS011;59602;52.142;5.408;2022-11-28T05:42:33;6.65;;;3.40;;
71763;SDS011;59602;52.142;5.408;2022-11-28T05:45:00;7.30;;;3.33;;
71763;SDS011;59602;52.142;5.408;2022-11-28T05:47:29;7.90;;;3.75;;
71763;SDS011;59602;52.142;5.408;2022-11-28T05:49:56;6.47;;;2.90;;
71763;SDS011;59602;52.142;5.408;2022-11-28T05:52:23;7.70;;;3.72;;
71763;SDS011;59602;52.142;5.408;2022-11-28T05:54:50;6.38;;;3.30;;
71763;SDS011;59602;52.142;5.408;2022-11-28T05:57:16;7.45;;;3.20;;
71763;SDS011;59602;52.142;5.408;2022-11-28T05:59:43;6.78;;;3.25;;
71763;SDS011;59602;52.142;5.408;2022-11-28T06:02:10;7.40;;;3.13;;
71763;SDS011;59602;52.142;5.408;2022-11-28T06:04:37;4.50;;;2.63;;
71763;SDS011;59602;52.142;5.408;2022-11-28T06:07:07;5.53;;;2.85;;
71763;SDS011;59602;52.142;5.408;2022-11-28T06:09:33;7.28;;;3.15;;
71763;SDS011;59602;52.142;5.408;2022-11-28T06:12:01;5.47;;;3.00;;
71763;SDS011;59602;52.142;5.408;2022-11-28T06:14:29;8.43;;;3.40;;
71763;SDS011;59602;52.142;5.408;2022-11-28T06:16:55;6.00;;;2.97;;
71763;SDS011;59602;52.142;5.408;2022-11-28T06:19:22;6.10;;;2.70;;
71763;SDS011;59602;52.142;5.408;2022-11-28T06:21:49;6.68;;;3.28;;
71763;SDS011;59602;52.142;5.408;2022-11-28T06:24:16;6.18;;;3.05;;
71763;SDS011;59602;52.142;5.408;2022-11-28T06:26:42;6.50;;;3.10;;
71763;SDS011;59602;52.142;5.408;2022-11-28T06:29:09;7.18;;;3.22;;
71763;SDS011;59602;52.142;5.408;2022-11-28T06:31:36;6.45;;;3.47;;
71763;SDS011;59602;52.142;5.408;2022-11-28T06:34:02;6.97;;;3.35;;
71763;SDS011;59602;52.142;5.408;2022-11-28T06:36:29;6.53;;;3.35;;
71763;SDS011;59602;52.142;5.408;2022-11-28T06:38:56;5.83;;;3.03;;
71763;SDS011;59602;52.142;5.408;2022-11-28T06:41:22;5.93;;;3.03;;
71763;SDS011;59602;52.142;5.408;2022-11-28T06:43:49;4.75;;;2.80;;
71763;SDS011;59602;52.142;5.408;2022-11-28T06:46:17;5.93;;;3.15;;
71763;SDS011;59602;52.142;5.408;2022-11-28T06:48:45;6.97;;;3.53;;
71763;SDS011;59602;52.142;5.408;2022-11-28T06:51:13;6.80;;;3.50;;
71763;SDS011;59602;52.142;5.408;2022-11-28T06:53:39;7.68;;;3.30;;
71763;SDS011;59602;52.142;5.408;2022-11-28T06:56:07;7.60;;;3.35;;
71763;SDS011;59602;52.142;5.408;2022-11-28T06:58:36;6.43;;;3.05;;
71763;SDS011;59602;52.142;5.408;2022-11-28T07:01:05;6.30;;;3.33;;
71763;SDS011;59602;52.142;5.408;2022-11-28T07:03:34;7.00;;;3.20;;
71763;SDS011;59602;52.142;5.408;2022-11-28T07:06:01;7.18;;;3.53;;
71763;SDS011;59602;52.142;5.408;2022-11-28T07:08:29;6.88;;;3.90;;
71763;SDS011;59602;52.142;5.408;2022-11-28T07:10:57;7.43;;;3.65;;
71763;SDS011;59602;52.142;5.408;2022-11-28T07:13:31;8.35;;;3.78;;
71763;SDS011;59602;52.142;5.408;2022-11-28T07:15:58;6.57;;;3.90;;
71763;SDS011;59602;52.142;5.408;2022-11-28T07:18:24;8.65;;;4.00;;
71763;SDS011;59602;52.142;5.408;2022-11-28T07:20:51;7.55;;;3.53;;
71763;SDS011;59602;52.142;5.408;2022-11-28T07:23:17;6.72;;;3.88;;
71763;SDS011;59602;52.142;5.408;2022-11-28T07:25:44;7.50;;;3.80;;
71763;SDS011;59602;52.142;5.408;2022-11-28T07:28:10;8.33;;;3.80;;
71763;SDS011;59602;52.142;5.408;2022-11-28T07:30:37;7.88;;;3.83;;
71763;SDS011;59602;52.142;5.408;2022-11-28T07:33:03;8.38;;;4.50;;
71763;SDS011;59602;52.142;5.408;2022-11-28T07:35:32;7.65;;;4.00;;
71763;SDS011;59602;52.142;5.408;2022-11-28T07:37:59;8.55;;;4.20;;
71763;SDS011;59602;52.142;5.408;2022-11-28T07:40:26;6.57;;;3.70;;
71763;SDS011;59602;52.142;5.408;2022-11-28T07:42:53;7.15;;;3.80;;
71763;SDS011;59602;52.142;5.408;2022-11-28T07:45:20;8.02;;;3.80;;
71763;SDS011;59602;52.142;5.408;2022-11-28T07:47:48;8.13;;;4.20;;
71763;SDS011;59602;52.142;5.408;2022-11-28T07:50:14;7.28;;;3.88;;
71763;SDS011;59602;52.142;5.408;2022-11-28T07:52:41;9.83;;;5.13;;
71763;SDS011;59602;52.142;5.408;2022-11-28T07:55:07;9.98;;;4.18;;
71763;SDS011;59602;52.142;5.408;2022-11-28T07:57:34;10.10;;;4.85;;
71763;SDS011;59602;52.142;5.408;2022-11-28T08:00:00;13.25;;;6.22;;
71763;SDS011;59602;52.142;5.408;2022-11-28T08:02:27;9.05;;;5.00;;
71763;SDS011;59602;52.142;5.408;2022-11-28T08:04:57;22.70;;;9.10;;
71763;SDS011;59602;52.142;5.408;2022-11-28T08:07:25;13.30;;;5.88;;
71763;SDS011;59602;52.142;5.408;2022-11-28T08:09:51;9.77;;;5.07;;
71763;SDS011;59602;52.142;5.408;2022-11-28T08:12:18;9.48;;;4.97;;
71763;SDS011;59602;52.142;5.408;2022-11-28T08:14:44;7.90;;;4.22;;
71763;SDS011;59602;52.142;5.408;2022-11-28T08:17:11;9.87;;;4.83;;
71763;SDS011;59602;52.142;5.408;2022-11-28T08:19:38;12.40;;;4.70;;
71763;SDS011;59602;52.142;5.408;2022-11-28T08:22:04;8.95;;;4.15;;
71763;SDS011;59602;52.142;5.408;2022-11-28T08:24:30;9.80;;;4.55;;
71763;SDS011;59602;52.142;5.408;2022-11-28T08:26:58;10.18;;;4.55;;
71763;SDS011;59602;52.142;5.408;2022-11-28T08:29:25;10.40;;;4.60;;
71763;SDS011;59602;52.142;5.408;2022-11-28T08:31:51;10.05;;;4.97;;
71763;SDS011;59602;52.142;5.408;2022-11-28T08:34:18;10.68;;;5.00;;
71763;SDS011;59602;52.142;5.408;2022-11-28T08:36:44;11.85;;;4.88;;
71763;SDS011;59602;52.142;5.408;2022-11-28T08:39:12;10.60;;;4.93;;
71763;SDS011;59602;52.142;5.408;2022-11-28T08:41:50;11.90;;;4.87;;
71763;SDS011;59602;52.142;5.408;2022-11-28T08:44:17;10.30;;;4.55;;
71763;SDS011;59602;52.142;5.408;2022-11-28T08:46:43;9.48;;;4.38;;
71763;SDS011;59602;52.142;5.408;2022-11-28T08:49:10;11.18;;;4.93;;
71763;SDS011;59602;52.142;5.408;2022-11-28T08:51:37;12.50;;;4.80;;
71763;SDS011;59602;52.142;5.408;2022-11-28T08:54:03;10.80;;;4.83;;
71763;SDS011;59602;52.142;5.408;2022-11-28T08:56:30;8.13;;;4.35;;
71763;SDS011;59602;52.142;5.408;2022-11-28T08:58:56;11.85;;;4.60;;
71763;SDS011;59602;52.142;5.408;2022-11-28T09:01:23;14.13;;;5.07;;
71763;SDS011;59602;52.142;5.408;2022-11-28T09:03:53;11.80;;;4.95;;
71763;SDS011;59602;52.142;5.408;2022-11-28T09:06:20;14.00;;;4.90;;
71763;SDS011;59602;52.142;5.408;2022-11-28T09:08:48;10.93;;;5.00;;
71763;SDS011;59602;52.142;5.408;2022-11-28T09:11:16;10.75;;;5.13;;
71763;SDS011;59602;52.142;5.408;2022-11-28T09:13:44;13.07;;;5.22;;
71763;SDS011;59602;52.142;5.408;2022-11-28T09:16:12;12.38;;;5.15;;
71763;SDS011;59602;52.142;5.408;2022-11-28T09:18:39;11.43;;;4.67;;
71763;SDS011;59602;52.142;5.408;2022-11-28T09:21:07;12.55;;;5.70;;
71763;SDS011;59602;52.142;5.408;2022-11-28T09:23:36;14.10;;;5.93;;
71763;SDS011;59602;52.142;5.408;2022-11-28T09:26:11;13.48;;;5.30;;
71763;SDS011;59602;52.142;5.408;2022-11-28T09:28:40;11.98;;;5.03;;
71763;SDS011;59602;52.142;5.408;2022-11-28T09:31:06;11.83;;;5.30;;
71763;SDS011;59602;52.142;5.408;2022-11-28T09:33:34;12.93;;;5.32;;
71763;SDS011;59602;52.142;5.408;2022-11-28T09:36:03;13.23;;;5.25;;
71763;SDS011;59602;52.142;5.408;2022-11-28T09:38:31;12.68;;;5.35;;
71763;SDS011;59602;52.142;5.408;2022-11-28T09:40:58;12.50;;;5.38;;
71763;SDS011;59602;52.142;5.408;2022-11-28T09:43:31;13.43;;;5.27;;
71763;SDS011;59602;52.142;5.408;2022-11-28T09:46:04;17.13;;;5.68;;
71763;SDS011;59602;52.142;5.408;2022-11-28T09:48:38;18.40;;;7.30;;
71763;SDS011;59602;52.142;5.408;2022-11-28T09:53:53;15.43;;;5.65;;
71763;SDS011;59602;52.142;5.408;2022-11-28T09:56:27;13.77;;;5.90;;
71763;SDS011;59602;52.142;5.408;2022-11-28T09:58:54;13.32;;;6.18;;
71763;SDS011;59602;52.142;5.408;2022-11-28T10:01:30;14.07;;;5.80;;
71763;SDS011;59602;52.142;5.408;2022-11-28T10:04:02;18.52;;;7.00;;
71763;SDS011;59602;52.142;5.408;2022-11-28T10:12:10;18.70;;;7.15;;
71763;SDS011;59602;52.142;5.408;2022-11-28T10:14:45;24.90;;;7.82;;
71763;SDS011;59602;52.142;5.408;2022-11-28T10:17:19;17.60;;;7.60;;
71763;SDS011;59602;52.142;5.408;2022-11-28T10:19:51;23.10;;;7.97;;
71763;SDS011;59602;52.142;5.408;2022-11-28T10:22:34;20.33;;;8.10;;
71763;SDS011;59602;52.142;5.408;2022-11-28T10:25:10;22.48;;;8.00;;
71763;SDS011;59602;52.142;5.408;2022-11-28T10:27:49;23.40;;;8.23;;
71763;SDS011;59602;52.142;5.408;2022-11-28T10:30:19;24.02;;;7.72;;
71763;SDS011;59602;52.142;5.408;2022-11-28T10:32:54;26.02;;;8.68;;
71763;SDS011;59602;52.142;5.408;2022-11-28T10:35:32;22.77;;;8.70;;
71763;SDS011;59602;52.142;5.408;2022-11-28T10:38:09;31.33;;;9.38;;
71763;SDS011;59602;52.142;5.408;2022-11-28T10:40:41;30.60;;;9.90;;
71763;SDS011;59602;52.142;5.408;2022-11-28T10:43:18;26.20;;;10.02;;
71763;SDS011;59602;52.142;5.408;2022-11-28T10:46:20;26.65;;;9.98;;
71763;SDS011;59602;52.142;5.408;2022-11-28T11:01:48;31.13;;;10.03;;
71763;SDS011;59602;52.142;5.408;2022-11-28T11:04:19;29.27;;;9.77;;
71763;SDS011;59602;52.142;5.408;2022-11-28T11:06:52;29.88;;;10.88;;
71763;SDS011;59602;52.142;5.408;2022-11-28T11:09:43;30.20;;;9.13;;
71763;SDS011;59602;52.142;5.408;2022-11-28T11:12:14;32.47;;;10.75;;
71763;SDS011;59602;52.142;5.408;2022-11-28T11:14:48;28.83;;;10.40;;
71763;SDS011;59602;52.142;5.408;2022-11-28T11:17:34;33.28;;;10.50;;
71763;SDS011;59602;52.142;5.408;2022-11-28T11:20:22;33.92;;;10.65;;
71763;SDS011;59602;52.142;5.408;2022-11-28T11:22:54;30.05;;;9.73;;
71763;SDS011;59602;52.142;5.408;2022-11-28T11:25:23;34.20;;;11.30;;
71763;SDS011;59602;52.142;5.408;2022-11-28T11:27:52;32.90;;;10.57;;
71763;SDS011;59602;52.142;5.408;2022-11-28T11:30:27;32.78;;;10.40;;
71763;SDS011;59602;52.142;5.408;2022-11-28T11:32:57;30.95;;;10.43;;
71763;SDS011;59602;52.142;5.408;2022-11-28T11:35:25;35.65;;;11.48;;
71763;SDS011;59602;52.142;5.408;2022-11-28T11:40:42;33.23;;;10.97;;
71763;SDS011;59602;52.142;5.408;2022-11-28T11:43:30;33.83;;;11.38;;
71763;SDS011;59602;52.142;5.408;2022-11-28T11:46:09;35.38;;;10.80;;
71763;SDS011;59602;52.142;5.408;2022-11-28T11:48:39;33.88;;;11.45;;
71763;SDS011;59602;52.142;5.408;2022-11-28T11:51:19;30.88;;;10.25;;
71763;SDS011;59602;52.142;5.408;2022-11-28T11:53:46;32.53;;;10.80;;
71763;SDS011;59602;52.142;5.408;2022-11-28T11:56:13;34.90;;;9.60;;
71763;SDS011;59602;52.142;5.408;2022-11-28T11:58:42;58.35;;;13.40;;
71763;SDS011;59602;52.142;5.408;2022-11-28T12:01:12;45.17;;;11.60;;
71763;SDS011;59602;52.142;5.408;2022-11-28T12:03:47;34.25;;;10.85;;
71763;SDS011;59602;52.142;5.408;2022-11-28T12:06:21;35.37;;;10.73;;
71763;SDS011;59602;52.142;5.408;2022-11-28T12:08:53;28.25;;;9.93;;
71763;SDS011;59602;52.142;5.408;2022-11-28T12:11:34;39.65;;;11.30;;
71763;SDS011;59602;52.142;5.408;2022-11-28T12:14:23;31.75;;;10.80;;
71763;SDS011;59602;52.142;5.408;2022-11-28T12:17:04;28.85;;;9.70;;
71763;SDS011;59602;52.142;5.408;2022-11-28T12:20:21;28.33;;;9.73;;
71763;SDS011;59602;52.142;5.408;2022-11-28T12:25:46;32.38;;;10.10;;
71763;SDS011;59602;52.142;5.408;2022-11-28T12:36:28;30.52;;;10.90;;
71763;SDS011;59602;52.142;5.408;2022-11-28T12:38:59;26.88;;;10.25;;
71763;SDS011;59602;52.142;5.408;2022-11-28T12:41:32;30.67;;;10.82;;
71763;SDS011;59602;52.142;5.408;2022-11-28T12:44:14;28.85;;;10.32;;
71763;SDS011;59602;52.142;5.408;2022-11-28T12:52:12;23.50;;;9.23;;
71763;SDS011;59602;52.142;5.408;2022-11-28T13:00:17;28.53;;;9.70;;
71763;SDS011;59602;52.142;5.408;2022-11-28T13:02:51;26.05;;;9.52;;
71763;SDS011;59602;52.142;5.408;2022-11-28T13:05:36;29.65;;;10.02;;
71763;SDS011;59602;52.142;5.408;2022-11-28T13:13:31;29.20;;;11.97;;
71763;SDS011;59602;52.142;5.408;2022-11-28T13:16:16;30.27;;;10.80;;
71763;SDS011;59602;52.142;5.408;2022-11-28T13:18:55;26.90;;;9.25;;
71763;SDS011;59602;52.142;5.408;2022-11-28T13:21:35;27.55;;;9.88;;
71763;SDS011;59602;52.142;5.408;2022-11-28T13:32:15;25.48;;;10.73;;
71763;SDS011;59602;52.142;5.408;2022-11-28T13:34:44;27.65;;;10.32;;
71763;SDS011;59602;52.142;5.408;2022-11-28T13:37:17;26.58;;;10.18;;
71763;SDS011;59602;52.142;5.408;2022-11-28T13:43:02;26.65;;;9.63;;
71763;SDS011;59602;52.142;5.408;2022-11-28T13:45:34;28.58;;;9.73;;
71763;SDS011;59602;52.142;5.408;2022-11-28T13:51:20;27.67;;;9.35;;
71763;SDS011;59602;52.142;5.408;2022-11-28T13:56:43;28.40;;;10.23;;
71763;SDS011;59602;52.142;5.408;2022-11-28T13:59:17;27.13;;;10.13;;
71763;SDS011;59602;52.142;5.408;2022-11-28T14:01:49;29.65;;;11.45;;
71763;SDS011;59602;52.142;5.408;2022-11-28T14:04:21;25.17;;;9.82;;
71763;SDS011;59602;52.142;5.408;2022-11-28T14:06:50;26.63;;;9.40;;
71763;SDS011;59602;52.142;5.408;2022-11-28T14:09:29;30.35;;;9.80;;
71763;SDS011;59602;52.142;5.408;2022-11-28T14:12:04;27.73;;;11.13;;
71763;SDS011;59602;52.142;5.408;2022-11-28T14:22:57;30.60;;;11.10;;
71763;SDS011;59602;52.142;5.408;2022-11-28T14:25:41;27.13;;;9.85;;
71763;SDS011;59602;52.142;5.408;2022-11-28T14:30:48;27.98;;;9.80;;
71763;SDS011;59602;52.142;5.408;2022-11-28T14:33:17;26.97;;;9.23;;
71763;SDS011;59602;52.142;5.408;2022-11-28T14:36:00;30.77;;;11.50;;
71763;SDS011;59602;52.142;5.408;2022-11-28T14:40:58;24.15;;;8.57;;
71763;SDS011;59602;52.142;5.408;2022-11-28T14:52:03;28.90;;;9.75;;
71763;SDS011;59602;52.142;5.408;2022-11-28T14:54:53;26.70;;;9.35;;
71763;SDS011;59602;52.142;5.408;2022-11-28T14:59:54;26.90;;;9.67;;
71763;SDS011;59602;52.142;5.408;2022-11-28T15:02:25;26.13;;;9.45;;
71763;SDS011;59602;52.142;5.408;2022-11-28T15:05:12;26.83;;;8.75;;
71763;SDS011;59602;52.142;5.408;2022-11-28T15:13:28;25.23;;;9.13;;
71763;SDS011;59602;52.142;5.408;2022-11-28T15:16:20;26.77;;;10.32;;
71763;SDS011;59602;52.142;5.408;2022-11-28T15:18:51;29.55;;;9.35;;
71763;SDS011;59602;52.142;5.408;2022-11-28T15:21:22;27.08;;;9.00;;
71763;SDS011;59602;52.142;5.408;2022-11-28T15:23:48;26.48;;;9.23;;
71763;SDS011;59602;52.142;5.408;2022-11-28T15:26:19;28.70;;;9.13;;
71763;SDS011;59602;52.142;5.408;2022-11-28T15:28:47;25.58;;;8.68;;
71763;SDS011;59602;52.142;5.408;2022-11-28T15:31:19;31.70;;;10.07;;
71763;SDS011;59602;52.142;5.408;2022-11-28T15:33:48;29.80;;;9.80;;
71763;SDS011;59602;52.142;5.408;2022-11-28T15:36:20;29.48;;;9.25;;
71763;SDS011;59602;52.142;5.408;2022-11-28T15:38:52;31.03;;;9.50;;
71763;SDS011;59602;52.142;5.408;2022-11-28T15:41:21;29.27;;;8.82;;
71763;SDS011;59602;52.142;5.408;2022-11-28T15:43:49;28.45;;;9.80;;
71763;SDS011;59602;52.142;5.408;2022-11-28T15:46:19;29.63;;;9.52;;
71763;SDS011;59602;52.142;5.408;2022-11-28T15:48:52;25.88;;;9.13;;
71763;SDS011;59602;52.142;5.408;2022-11-28T15:51:28;26.83;;;9.03;;
71763;SDS011;59602;52.142;5.408;2022-11-28T15:54:17;32.00;;;9.60;;
71763;SDS011;59602;52.142;5.408;2022-11-28T15:56:57;29.65;;;9.52;;
71763;SDS011;59602;52.142;5.408;2022-11-28T15:59:25;29.42;;;9.60;;
71763;SDS011;59602;52.142;5.408;2022-11-28T16:01:52;27.30;;;9.23;;
71763;SDS011;59602;52.142;5.408;2022-11-28T16:04:46;24.27;;;8.80;;
71763;SDS011;59602;52.142;5.408;2022-11-28T16:07:24;28.85;;;9.63;;
71763;SDS011;59602;52.142;5.408;2022-11-28T16:09:58;31.58;;;10.10;;
71763;SDS011;59602;52.142;5.408;2022-11-28T16:12:26;29.70;;;9.43;;
71763;SDS011;59602;52.142;5.408;2022-11-28T16:14:53;31.45;;;9.27;;
71763;SDS011;59602;52.142;5.408;2022-11-28T16:17:28;24.83;;;9.53;;
71763;SDS011;59602;52.142;5.408;2022-11-28T16:19:57;27.17;;;9.57;;
71763;SDS011;59602;52.142;5.408;2022-11-28T16:22:26;27.55;;;9.32;;
71763;SDS011;59602;52.142;5.408;2022-11-28T16:24:57;24.77;;;7.68;;
71763;SDS011;59602;52.142;5.408;2022-11-28T16:27:38;32.85;;;10.82;;
71763;SDS011;59602;52.142;5.408;2022-11-28T16:30:23;31.00;;;10.17;;
71763;SDS011;59602;52.142;5.408;2022-11-28T16:32:58;23.90;;;8.70;;
71763;SDS011;59602;52.142;5.408;2022-11-28T16:35:29;23.20;;;7.88;;
71763;SDS011;59602;52.142;5.408;2022-11-28T16:38:14;23.42;;;8.25;;
71763;SDS011;59602;52.142;5.408;2022-11-28T16:40:43;22.25;;;8.27;;
71763;SDS011;59602;52.142;5.408;2022-11-28T16:43:18;21.53;;;7.83;;
71763;SDS011;59602;52.142;5.408;2022-11-28T16:45:57;24.83;;;7.60;;
71763;SDS011;59602;52.142;5.408;2022-11-28T16:48:27;25.13;;;7.93;;
71763;SDS011;59602;52.142;5.408;2022-11-28T16:53:47;24.65;;;7.50;;
71763;SDS011;59602;52.142;5.408;2022-11-28T16:59:01;24.90;;;8.68;;
71763;SDS011;59602;52.142;5.408;2022-11-28T17:01:32;26.00;;;8.73;;
71763;SDS011;59602;52.142;5.408;2022-11-28T17:04:00;26.63;;;8.82;;
71763;SDS011;59602;52.142;5.408;2022-11-28T17:06:31;25.08;;;7.78;;
71763;SDS011;59602;52.142;5.408;2022-11-28T17:08:59;25.73;;;8.87;;
71763;SDS011;59602;52.142;5.408;2022-11-28T17:11:27;26.45;;;8.75;;
71763;SDS011;59602;52.142;5.408;2022-11-28T17:13:57;27.65;;;8.20;;
71763;SDS011;59602;52.142;5.408;2022-11-28T17:16:28;29.63;;;9.05;;
71763;SDS011;59602;52.142;5.408;2022-11-28T17:19:03;27.45;;;8.68;;
71763;SDS011;59602;52.142;5.408;2022-11-28T17:21:32;27.80;;;8.53;;
71763;SDS011;59602;52.142;5.408;2022-11-28T17:24:00;24.75;;;7.88;;
71763;SDS011;59602;52.142;5.408;2022-11-28T17:26:27;25.08;;;8.57;;
71763;SDS011;59602;52.142;5.408;2022-11-28T17:28:55;23.60;;;7.88;;
71763;SDS011;59602;52.142;5.408;2022-11-28T17:31:23;21.58;;;7.57;;
71763;SDS011;59602;52.142;5.408;2022-11-28T17:33:49;21.40;;;7.53;;